Hauptseite
METAR-TAF:

METAR-TAF

Flughäfen :

London Biggin Hill Airport

London Biggin Hill, England

Breite: 51-19N, Länge: 000-02E, Höhe: 183 m

Beobachtung

Neuester Wetterbericht von vor 8 Stunden und 1 Minuten, um 22:20 UTC
Wind 5 kt aus West/Nordwest
Temperatur 0°C
Luftfeuchtigkeit 100%
Luftdruck 996 hPa
Sichtweite: 0450 m
Durchbrochene Bewölkung in der Höhe von 300 ft
Nebel

METAR: EGKB 222220Z 30005KT 0450 R21///// FG BKN003 00/M00 Q0996

Zeit: 06:21 (06:21 UTC)

Prognose

Neuester Wetterbericht von vor 9 Stunden und 27 Minuten, um 20:54 UTC
Gültige Prognose vom 22 um 21 UTC bis 22 um 23 UTC
Wind 4 kt aus West/Nordwest
Sichtweite: 0700 m
Durchbrochene Bewölkung in der Höhe von 100 ft
Nebel
Wahrscheinlichkeit 30% :
Zeitweise
vom 22 um 21 UTC bis 22 um 23 UTC
Sichtweite 10 km oder mehr
Leicht bewölkt in der Höhe von 200 ft

TAF: EGKB 222054Z 2221/2223 29004KT 0700 FG BKN001 PROB30 TEMPO 2221/2223 9999 NSW FEW002

Wetterbeobachtungen und Prognosen von mehr als 4000 Flughäfen (METAR und TAF Bericht).

Die verfügbaren Stationen werden durch gelbe und rote Markierungen auf der Karte dargestellt.

Führen Sie die Maus auf sie, um den Namen der Station zu sehen.

Darauf klicken, um die Beobachtung von Wetterbeobachtungen und Prognosen zu sehen.

Um die Karte zu ändern : klicken Sie auf den grünen Tasten mit einem schwarzen Kreuz Zum Vergrößern, auf den grünen Button mit einem Gedankenstrich zu verkleinern, oder auf die grünen Pfeile für benachbarte Karten.


METAR-TAF: